Time;durP1;ratioP1;P1;durP2;ratioP2;P2;SDS_P1;SDS_P2;PMS_P1;PMS_P2;Temp;Humidity;BMP_temperature;BMP_pressure;BME280_temperature;BME280_humidity;BME280_pressure;Samples;Min_cycle;Max_cycle;Signal;HPM_P1;HPM_P2
2021/01/13 00:00:20;;;;;;;1.80;0.30;;;2.10;99.90;;;;;;5067998;28;20245;-59
2021/01/13 00:02:46;;;;;;;7.10;2.05;;;2.10;99.90;;;;;;5070909;28;20177;-59
2021/01/13 00:05:13;;;;;;;2.30;1.00;;;2.00;99.90;;;;;;5072211;28;20633;-59
2021/01/13 00:07:40;;;;;;;1.70;0.20;;;2.00;99.90;;;;;;5071360;28;20206;-59
2021/01/13 00:10:06;;;;;;;1.75;0.20;;;2.00;99.90;;;;;;5072790;28;20235;-59
2021/01/13 00:12:31;;;;;;;6.07;1.95;;;2.00;99.90;;;;;;5062638;28;20223;-61
2021/01/13 00:14:57;;;;;;;1.70;0.20;;;2.00;99.90;;;;;;5068869;28;20180;-57
2021/01/13 00:17:22;;;;;;;1.70;0.20;;;2.00;99.90;;;;;;5069834;28;20232;-60
2021/01/13 00:19:48;;;;;;;2.33;0.50;;;2.00;99.90;;;;;;5072364;28;20185;-60
2021/01/13 00:22:13;;;;;;;2.87;1.37;;;2.00;99.90;;;;;;5069820;28;20184;-59
2021/01/13 00:24:39;;;;;;;4.27;1.83;;;2.00;99.90;;;;;;5071634;28;20661;-59
2021/01/13 00:27:04;;;;;;;2.07;0.50;;;2.00;99.90;;;;;;5069299;28;20220;-59
2021/01/13 00:29:30;;;;;;;1.70;0.20;;;2.00;99.90;;;;;;5068235;28;20329;-59
2021/01/13 00:32:00;;;;;;;1.90;0.60;;;2.00;99.90;;;;;;5071127;28;20211;-61
2021/01/13 00:34:26;;;;;;;3.03;1.73;;;2.00;99.90;;;;;;5072607;28;20192;-59
2021/01/13 00:36:52;;;;;;;2.55;0.70;;;2.00;99.90;;;;;;5068636;28;20208;-59
2021/01/13 00:39:17;;;;;;;1.77;0.20;;;1.90;99.90;;;;;;5098710;22;20232;-64
2021/01/13 00:41:43;;;;;;;1.70;0.20;;;1.90;99.90;;;;;;5066135;28;20188;-65
2021/01/13 00:44:09;;;;;;;2.77;1.23;;;1.90;99.90;;;;;;5061108;28;20181;-65
2021/01/13 00:46:40;;;;;;;1.87;0.47;;;1.90;99.90;;;;;;5064988;28;20177;-65
2021/01/13 00:49:07;;;;;;;1.75;0.20;;;1.80;99.90;;;;;;5069367;28;20450;-65
2021/01/13 00:51:38;;;;;;;1.70;0.20;;;1.80;99.90;;;;;;5070224;28;20185;-65
2021/01/13 00:54:08;;;;;;;1.70;0.20;;;1.80;99.90;;;;;;5072120;28;20640;-64
2021/01/13 00:56:35;;;;;;;1.70;0.20;;;1.80;99.90;;;;;;5072394;28;20181;-64
2021/01/13 00:59:00;;;;;;;1.70;0.20;;;1.80;99.90;;;;;;5074150;28;20207;-64
2021/01/13 01:01:27;;;;;;;1.80;0.20;;;1.80;99.90;;;;;;5077043;28;20185;-65
2021/01/13 01:03:56;;;;;;;1.70;0.20;;;1.80;99.90;;;;;;5076125;28;20972;-64
2021/01/13 01:06:23;;;;;;;2.10;0.90;;;1.80;99.90;;;;;;5088900;28;20192;-64
2021/01/13 01:08:50;;;;;;;1.73;0.20;;;1.80;99.90;;;;;;5089471;28;20205;-65
2021/01/13 01:11:21;;;;;;;5.93;1.98;;;1.70;99.90;;;;;;5086164;28;20293;-67
2021/01/13 01:13:46;;;;;;;2.55;1.25;;;1.70;99.90;;;;;;5082229;28;20232;-66
2021/01/13 01:16:12;;;;;;;1.70;0.20;;;1.70;99.90;;;;;;5091219;28;20180;-65
2021/01/13 01:18:38;;;;;;;1.70;0.20;;;1.70;99.90;;;;;;5080334;28;20254;-65
2021/01/13 01:21:06;;;;;;;4.33;1.43;;;1.70;99.90;;;;;;5079988;28;20180;-64
2021/01/13 01:23:31;;;;;;;1.90;0.45;;;1.70;99.90;;;;;;5074637;28;20195;-65
2021/01/13 01:25:57;;;;;;;1.80;0.50;;;1.70;99.90;;;;;;5068995;28;20185;-65
2021/01/13 01:28:22;;;;;;;1.70;0.20;;;1.70;99.90;;;;;;5077938;28;20205;-64
2021/01/13 01:30:48;;;;;;;4.80;1.60;;;1.80;99.90;;;;;;5071282;28;20566;-64
2021/01/13 01:33:13;;;;;;;1.70;0.20;;;1.80;99.90;;;;;;5070049;28;20184;-64
2021/01/13 01:35:39;;;;;;;1.70;0.20;;;1.70;99.90;;;;;;5072455;28;20188;-64
2021/01/13 01:38:05;;;;;;;1.77;0.30;;;1.70;99.90;;;;;;5070741;28;20210;-65
2021/01/13 01:40:30;;;;;;;1.70;0.20;;;1.70;99.90;;;;;;5071976;28;20599;-64
2021/01/13 01:42:56;;;;;;;1.90;0.43;;;1.70;99.90;;;;;;5069117;28;20193;-64
2021/01/13 01:45:29;;;;;;;7.53;2.30;;;1.70;99.90;;;;;;5068467;28;20184;-65
2021/01/13 01:48:22;;;;;;;1.70;0.20;;;1.60;99.90;;;;;;5072339;28;20183;-65
2021/01/13 01:50:49;;;;;;;1.70;0.30;;;1.60;99.90;;;;;;5071528;28;20679;-63
2021/01/13 01:53:21;;;;;;;2.47;1.15;;;1.50;99.90;;;;;;5074748;28;20642;-65
2021/01/13 01:56:01;;;;;;;2.08;0.47;;;1.50;99.90;;;;;;5071128;28;20543;-64
2021/01/13 01:58:31;;;;;;;1.90;0.40;;;1.50;99.90;;;;;;5077959;28;20233;-64
2021/01/13 02:00:58;;;;;;;1.83;0.32;;;1.40;99.90;;;;;;5069512;28;20685;-64
2021/01/13 02:03:29;;;;;;;2.00;0.50;;;1.40;99.90;;;;;;5069833;28;20671;-64
2021/01/13 02:06:06;;;;;;;1.73;0.20;;;1.40;99.90;;;;;;5072682;28;20318;-64
2021/01/13 02:08:37;;;;;;;1.70;0.20;;;1.40;99.90;;;;;;5074010;28;20200;-64
2021/01/13 02:11:03;;;;;;;2.72;1.52;;;1.40;99.90;;;;;;5066826;28;20212;-64
2021/01/13 02:13:29;;;;;;;3.77;1.73;;;1.40;99.90;;;;;;5068913;28;20176;-64
2021/01/13 02:15:55;;;;;;;1.77;0.47;;;1.40;99.90;;;;;;5073346;28;20938;-64
2021/01/13 02:18:22;;;;;;;1.73;0.30;;;1.40;99.90;;;;;;5074950;28;20221;-64
2021/01/13 02:20:53;;;;;;;3.22;1.92;;;1.40;99.90;;;;;;5072426;28;20219;-64
2021/01/13 02:23:35;;;;;;;1.70;0.20;;;1.40;99.90;;;;;;5072453;28;20216;-65
2021/01/13 02:26:24;;;;;;;1.80;0.30;;;1.40;99.90;;;;;;5072115;28;20279;-64
2021/01/13 02:29:03;;;;;;;1.75;0.30;;;1.30;99.90;;;;;;5070274;28;20196;-64
2021/01/13 02:31:30;;;;;;;3.53;1.80;;;1.30;99.90;;;;;;5072623;28;20196;-65
2021/01/13 02:34:24;;;;;;;1.70;0.20;;;1.40;99.90;;;;;;5070235;28;20208;-65
2021/01/13 02:37:23;;;;;;;7.10;0.95;;;1.40;99.90;;;;;;5072458;28;20180;-64
2021/01/13 02:39:48;;;;;;;1.70;0.20;;;1.40;99.90;;;;;;5069295;28;20220;-64
2021/01/13 02:42:27;;;;;;;3.23;1.83;;;1.40;99.90;;;;;;5071366;28;20233;-63
2021/01/13 02:45:09;;;;;;;1.70;0.20;;;1.40;99.90;;;;;;5067140;28;20212;-65
2021/01/13 02:47:56;;;;;;;1.70;0.20;;;1.40;99.90;;;;;;5075044;28;20639;-64
2021/01/13 02:50:25;;;;;;;1.80;0.30;;;1.50;99.90;;;;;;5071516;28;20208;-64
2021/01/13 02:53:07;;;;;;;1.70;0.30;;;1.40;99.90;;;;;;5060069;28;20175;-64
2021/01/13 02:55:41;;;;;;;2.45;0.95;;;1.50;99.90;;;;;;5070246;28;20248;-64
2021/01/13 02:58:10;;;;;;;1.70;0.20;;;1.50;99.90;;;;;;5068984;28;20239;-64
2021/01/13 03:00:36;;;;;;;3.28;1.00;;;1.50;99.90;;;;;;5071078;28;20577;-65
2021/01/13 03:03:03;;;;;;;1.73;0.20;;;1.50;99.90;;;;;;5073343;28;20218;-65
2021/01/13 03:05:29;;;;;;;1.75;0.40;;;1.50;99.90;;;;;;5070331;28;20185;-64
2021/01/13 03:07:56;;;;;;;3.60;0.87;;;1.50;99.90;;;;;;5070583;28;20295;-63
2021/01/13 03:10:25;;;;;;;1.70;0.20;;;1.60;99.90;;;;;;5073049;28;20517;-65
2021/01/13 03:13:02;;;;;;;4.55;0.73;;;1.60;99.90;;;;;;5066555;28;20186;-64
2021/01/13 03:15:30;;;;;;;4.28;1.00;;;1.60;99.90;;;;;;5070056;28;20697;-64
2021/01/13 03:18:14;;;;;;;1.70;0.20;;;1.60;99.90;;;;;;5074463;28;21569;-64
2021/01/13 03:21:02;;;;;;;6.63;1.00;;;1.60;99.90;;;;;;5070754;28;20184;-64
2021/01/13 03:23:54;;;;;;;2.55;1.05;;;1.60;99.90;;;;;;5070468;28;20189;-64
2021/01/13 03:26:28;;;;;;;2.08;0.73;;;1.60;99.90;;;;;;5068478;28;20600;-63
2021/01/13 03:28:54;;;;;;;1.80;0.38;;;1.50;99.90;;;;;;5075765;28;20219;-64
2021/01/13 03:31:27;;;;;;;2.00;0.73;;;1.50;99.90;;;;;;5072101;28;20212;-64
2021/01/13 03:34:07;;;;;;;1.70;0.20;;;1.50;99.90;;;;;;5068880;28;20230;-65
2021/01/13 03:36:39;;;;;;;1.75;0.28;;;1.50;99.90;;;;;;5072399;28;20298;-65
2021/01/13 03:39:06;;;;;;;2.17;0.63;;;1.60;99.90;;;;;;5071694;28;20212;-64
2021/01/13 03:41:55;;;;;;;1.70;0.20;;;1.60;99.90;;;;;;5071459;28;20566;-64
2021/01/13 03:44:29;;;;;;;1.70;0.20;;;1.50;99.90;;;;;;5059045;28;20201;-64
2021/01/13 03:46:56;;;;;;;1.70;0.20;;;1.50;99.90;;;;;;5072714;28;20181;-65
2021/01/13 03:49:35;;;;;;;2.10;0.40;;;1.50;99.90;;;;;;5068410;28;20631;-65
2021/01/13 03:52:06;;;;;;;1.73;0.20;;;1.50;99.90;;;;;;5072801;28;20199;-64
2021/01/13 03:54:36;;;;;;;1.73;0.20;;;1.50;99.90;;;;;;5073522;28;20264;-65
2021/01/13 03:57:07;;;;;;;1.73;0.20;;;1.50;99.90;;;;;;5075553;28;20259;-65
2021/01/13 04:00:01;;;;;;;8.43;2.58;;;1.50;99.90;;;;;;5082925;28;20571;-65
2021/01/13 04:02:43;;;;;;;1.80;0.30;;;1.40;99.90;;;;;;5089090;28;20188;-65
2021/01/13 04:05:27;;;;;;;1.70;0.20;;;1.40;99.90;;;;;;5079162;28;20199;-65
2021/01/13 04:07:54;;;;;;;1.77;0.30;;;1.30;99.90;;;;;;5073510;28;20176;-65
2021/01/13 04:10:20;;;;;;;1.70;0.20;;;1.30;99.90;;;;;;5073993;28;20196;-64
2021/01/13 04:12:57;;;;;;;1.70;0.30;;;1.30;99.90;;;;;;5071482;28;20184;-65
2021/01/13 04:15:39;;;;;;;3.80;1.30;;;1.30;99.90;;;;;;5076207;28;20494;-64
2021/01/13 04:18:07;;;;;;;2.35;0.43;;;1.30;99.90;;;;;;5072051;28;20450;-64
2021/01/13 04:20:34;;;;;;;1.70;0.20;;;1.30;99.90;;;;;;5073352;28;20255;-64
2021/01/13 04:23:01;;;;;;;1.70;0.20;;;1.30;99.90;;;;;;5068856;28;20181;-64
2021/01/13 04:25:26;;;;;;;1.70;0.30;;;1.20;99.90;;;;;;5074334;28;20222;-64
2021/01/13 04:27:52;;;;;;;2.13;0.70;;;1.30;99.90;;;;;;5069524;28;20185;-64
2021/01/13 04:30:18;;;;;;;2.83;0.77;;;1.20;99.90;;;;;;5071200;28;20211;-64
2021/01/13 04:32:44;;;;;;;1.75;0.30;;;1.20;99.90;;;;;;5072162;28;20659;-64
2021/01/13 04:35:11;;;;;;;1.70;0.20;;;1.20;99.90;;;;;;5068883;28;20184;-64
2021/01/13 04:37:39;;;;;;;1.70;0.20;;;1.10;99.90;;;;;;5071213;28;20191;-64
2021/01/13 04:40:36;;;;;;;1.70;0.20;;;1.20;99.90;;;;;;5070789;28;20614;-64
2021/01/13 04:43:08;;;;;;;2.20;0.73;;;1.20;99.90;;;;;;5066220;28;20196;-64
2021/01/13 04:45:45;;;;;;;2.58;1.98;;;1.10;99.90;;;;;;5071213;28;20185;-63
2021/01/13 04:48:20;;;;;;;1.73;0.20;;;1.10;99.90;;;;;;5069666;28;20196;-63
2021/01/13 04:50:51;;;;;;;2.85;1.05;;;1.10;99.90;;;;;;5067644;28;20208;-64
2021/01/13 04:53:19;;;;;;;1.70;0.20;;;1.00;99.90;;;;;;5069525;28;20173;-63
2021/01/13 04:55:55;;;;;;;1.73;0.20;;;1.10;99.90;;;;;;5073050;28;20185;-64
2021/01/13 04:58:20;;;;;;;7.20;2.30;;;1.10;99.90;;;;;;5068204;28;20207;-64
2021/01/13 05:01:10;;;;;;;2.40;1.43;;;1.10;99.90;;;;;;5069822;28;20184;-64
2021/01/13 05:03:43;;;;;;;2.55;1.70;;;1.00;99.90;;;;;;5071217;28;20189;-64
2021/01/13 05:06:47;;;;;;;1.70;0.20;;;1.10;99.90;;;;;;5071272;28;20195;-64
2021/01/13 05:09:12;;;;;;;1.70;0.20;;;1.00;99.90;;;;;;5069917;28;20208;-64
2021/01/13 05:11:43;;;;;;;1.70;0.20;;;1.10;99.90;;;;;;5069536;28;20250;-63
2021/01/13 05:14:10;;;;;;;1.70;0.20;;;1.10;99.90;;;;;;5070975;28;20278;-64
2021/01/13 05:16:50;;;;;;;3.35;1.73;;;1.00;99.90;;;;;;5068405;28;20216;-64
2021/01/13 05:19:51;;;;;;;1.80;0.30;;;1.00;99.90;;;;;;5065263;28;20200;-63
2021/01/13 05:22:16;;;;;;;3.38;0.60;;;1.00;99.90;;;;;;5067557;28;20191;-64
2021/01/13 05:24:42;;;;;;;2.27;0.73;;;1.00;99.90;;;;;;5065760;28;20180;-64
2021/01/13 05:27:46;;;;;;;1.70;0.20;;;1.00;99.90;;;;;;5067731;28;20185;-64
2021/01/13 05:30:12;;;;;;;2.53;0.77;;;1.10;99.90;;;;;;5068079;28;20291;-64
2021/01/13 05:32:41;;;;;;;1.77;0.30;;;1.10;99.90;;;;;;5068394;28;20884;-64
2021/01/13 05:35:08;;;;;;;1.70;0.20;;;1.00;99.90;;;;;;5068686;28;20192;-63
2021/01/13 05:37:58;;;;;;;1.73;0.20;;;1.10;99.90;;;;;;5070490;28;20259;-64
2021/01/13 05:40:26;;;;;;;2.15;0.60;;;1.10;99.90;;;;;;5069269;28;20246;-64
2021/01/13 05:42:53;;;;;;;2.00;0.73;;;1.10;99.90;;;;;;5065603;28;20216;-63
2021/01/13 05:45:20;;;;;;;1.70;0.20;;;1.10;99.90;;;;;;5069855;28;20183;-63
2021/01/13 05:47:55;;;;;;;1.70;0.20;;;1.10;99.90;;;;;;5069993;28;20189;-64
2021/01/13 05:50:23;;;;;;;9.73;3.22;;;1.10;99.90;;;;;;5073995;28;20290;-64
2021/01/13 05:52:51;;;;;;;2.90;0.93;;;1.10;99.90;;;;;;5074690;28;20188;-64
2021/01/13 05:55:20;;;;;;;1.70;0.20;;;1.10;99.90;;;;;;5057018;28;20868;-64
2021/01/13 05:57:57;;;;;;;2.65;0.98;;;1.20;99.90;;;;;;5057155;28;20209;-64
2021/01/13 06:00:28;;;;;;;3.30;1.38;;;1.20;99.90;;;;;;5074468;28;20193;-63
2021/01/13 06:02:59;;;;;;;1.70;0.20;;;1.20;99.90;;;;;;5074342;28;20210;-64
2021/01/13 06:05:27;;;;;;;1.75;0.20;;;1.20;99.90;;;;;;5042764;28;20690;-64
2021/01/13 06:07:56;;;;;;;1.70;0.20;;;1.20;99.90;;;;;;5074082;28;20189;-64
2021/01/13 06:10:27;;;;;;;1.70;0.20;;;1.30;99.90;;;;;;5072048;28;20215;-64
2021/01/13 06:12:56;;;;;;;1.73;0.20;;;1.30;99.90;;;;;;5070568;28;20226;-64
2021/01/13 06:15:26;;;;;;;1.70;0.20;;;1.30;99.90;;;;;;5073833;28;20196;-63
2021/01/13 06:17:53;;;;;;;2.20;0.85;;;1.30;99.90;;;;;;5074810;28;20183;-64
2021/01/13 06:20:25;;;;;;;1.75;0.22;;;1.40;99.90;;;;;;5068663;28;20197;-63
2021/01/13 06:22:52;;;;;;;1.70;0.30;;;1.40;99.90;;;;;;5068620;28;20648;-63
2021/01/13 06:25:24;;;;;;;1.70;0.20;;;1.40;99.90;;;;;;5075543;28;20263;-64
2021/01/13 06:27:52;;;;;;;2.10;0.50;;;1.50;99.90;;;;;;5080603;28;20176;-64
2021/01/13 06:30:18;;;;;;;1.70;0.20;;;1.50;99.90;;;;;;5093486;28;20216;-62
2021/01/13 06:33:08;;;;;;;1.80;0.30;;;1.60;99.90;;;;;;5095970;28;20196;-62
2021/01/13 06:36:05;;;;;;;2.15;0.98;;;1.60;99.90;;;;;;5089247;28;20216;-64
2021/01/13 06:38:45;;;;;;;1.77;0.28;;;1.50;99.90;;;;;;5096877;28;20188;-64
2021/01/13 06:41:11;;;;;;;2.00;0.55;;;1.50;99.90;;;;;;5090446;28;20184;-62
2021/01/13 06:43:37;;;;;;;2.77;1.07;;;1.50;99.90;;;;;;5097340;28;20196;-64
2021/01/13 06:46:17;;;;;;;1.70;0.20;;;1.50;99.90;;;;;;5098280;28;20201;-63
2021/01/13 06:48:43;;;;;;;1.70;0.20;;;1.40;99.90;;;;;;5089675;28;20619;-64
2021/01/13 06:51:15;;;;;;;4.37;0.73;;;1.40;99.90;;;;;;5095309;28;20212;-63
2021/01/13 06:53:45;;;;;;;1.75;0.30;;;1.50;99.90;;;;;;5088977;28;20179;-63
2021/01/13 06:56:12;;;;;;;1.70;0.20;;;1.50;99.90;;;;;;5089022;28;20172;-65
2021/01/13 06:58:38;;;;;;;1.70;0.20;;;1.50;99.90;;;;;;5072301;28;20200;-64
2021/01/13 07:01:04;;;;;;;1.70;0.20;;;1.50;99.90;;;;;;5070014;28;20187;-63
2021/01/13 07:03:31;;;;;;;1.73;0.20;;;1.60;99.90;;;;;;5074870;28;20185;-65
2021/01/13 07:06:10;;;;;;;1.70;0.20;;;1.60;99.90;;;;;;5073645;28;20184;-64
2021/01/13 07:08:36;;;;;;;1.75;0.30;;;1.60;99.90;;;;;;5077422;28;20208;-63
2021/01/13 07:11:10;;;;;;;8.70;0.57;;;1.60;99.90;;;;;;5094408;28;20208;-63
2021/01/13 07:13:40;;;;;;;1.80;0.50;;;1.60;99.90;;;;;;5097143;28;20199;-64
2021/01/13 07:16:06;;;;;;;5.10;3.35;;;1.60;99.90;;;;;;5118671;22;20181;-58
2021/01/13 07:18:33;;;;;;;2.13;0.90;;;1.70;99.90;;;;;;5069765;28;20200;-57
2021/01/13 07:21:06;;;;;;;1.80;0.30;;;1.70;99.90;;;;;;5072068;28;20176;-57
2021/01/13 07:23:33;;;;;;;1.77;0.30;;;1.60;99.90;;;;;;5073023;28;20184;-59
2021/01/13 07:26:00;;;;;;;1.80;0.30;;;1.60;99.90;;;;;;5071767;28;20205;-58
2021/01/13 07:28:26;;;;;;;1.70;0.20;;;1.60;99.90;;;;;;5066200;28;20181;-58
2021/01/13 07:30:54;;;;;;;2.03;0.93;;;1.50;99.90;;;;;;5072984;28;20303;-57
2021/01/13 07:33:20;;;;;;;5.03;1.45;;;1.50;99.90;;;;;;5073433;28;20915;-57
2021/01/13 07:35:46;;;;;;;4.20;2.05;;;1.50;99.90;;;;;;5068300;28;20215;-57
2021/01/13 07:38:17;;;;;;;1.70;0.20;;;1.60;99.90;;;;;;5073790;28;20309;-57
2021/01/13 07:40:59;;;;;;;1.70;0.20;;;1.60;99.90;;;;;;5068918;28;20189;-58
2021/01/13 07:43:51;;;;;;;2.00;0.73;;;1.60;99.90;;;;;;5068389;28;20602;-57
2021/01/13 07:46:28;;;;;;;2.00;0.52;;;1.70;99.90;;;;;;5033996;28;20219;-57
2021/01/13 07:48:53;;;;;;;2.65;0.90;;;1.70;99.90;;;;;;5074327;28;20195;-57
2021/01/13 07:51:19;;;;;;;2.23;0.70;;;1.80;99.90;;;;;;5069975;28;20200;-57
2021/01/13 07:54:04;;;;;;;3.35;1.10;;;1.70;99.90;;;;;;5073782;28;20177;-58
2021/01/13 07:56:34;;;;;;;1.70;0.20;;;1.70;99.90;;;;;;5065573;28;20558;-56
2021/01/13 07:59:42;;;;;;;1.73;0.20;;;1.70;99.90;;;;;;5071616;28;20184;-58
2021/01/13 08:02:32;;;;;;;3.10;0.98;;;1.70;99.90;;;;;;5071165;28;20643;-58
2021/01/13 08:05:01;;;;;;;1.88;0.43;;;1.80;99.90;;;;;;5071608;28;20180;-58
2021/01/13 08:07:40;;;;;;;1.70;0.20;;;1.80;99.90;;;;;;5074089;28;20886;-57
2021/01/13 08:10:07;;;;;;;2.33;0.75;;;1.80;99.90;;;;;;5068298;28;20204;-58
2021/01/13 08:13:14;;;;;;;4.68;1.90;;;1.80;99.90;;;;;;5073586;28;20234;-58
2021/01/13 08:15:47;;;;;;;1.80;0.38;;;1.70;99.90;;;;;;5066547;28;20243;-58
2021/01/13 08:18:49;;;;;;;2.92;0.77;;;1.80;99.90;;;;;;5065862;28;20212;-58
2021/01/13 08:21:24;;;;;;;1.70;0.20;;;1.80;99.90;;;;;;4985215;28;20574;-58
2021/01/13 08:23:59;;;;;;;2.22;0.75;;;1.80;99.90;;;;;;5049203;28;20185;-58
2021/01/13 08:26:25;;;;;;;5.68;3.10;;;1.80;99.90;;;;;;5070792;28;20200;-58
2021/01/13 08:28:52;;;;;;;4.70;1.90;;;1.80;99.90;;;;;;5069016;28;20325;-58
2021/01/13 08:31:23;;;;;;;6.15;2.65;;;1.80;99.90;;;;;;5070247;28;20200;-59
2021/01/13 08:34:02;;;;;;;7.10;3.38;;;1.80;99.90;;;;;;5069094;28;20204;-58
2021/01/13 08:36:28;;;;;;;1.73;0.20;;;1.80;99.90;;;;;;5062911;28;20675;-60
2021/01/13 08:39:13;;;;;;;1.70;0.20;;;1.80;99.90;;;;;;5070444;28;20204;-57
2021/01/13 08:41:43;;;;;;;1.73;0.20;;;1.90;99.90;;;;;;5070343;28;20216;-57
2021/01/13 08:44:14;;;;;;;2.75;0.55;;;1.90;99.90;;;;;;5068236;28;20215;-58
2021/01/13 08:46:42;;;;;;;5.53;2.45;;;1.90;99.90;;;;;;5067749;28;20200;-57
2021/01/13 08:49:08;;;;;;;2.92;0.90;;;1.90;99.90;;;;;;5066624;28;20216;-57
2021/01/13 08:51:34;;;;;;;7.43;1.60;;;1.80;99.90;;;;;;5069246;28;20212;-57
2021/01/13 08:54:19;;;;;;;2.90;1.35;;;1.80;99.90;;;;;;5070374;28;20670;-57
2021/01/13 08:56:56;;;;;;;5.45;1.67;;;1.80;99.90;;;;;;5065627;28;20259;-57
2021/01/13 08:59:34;;;;;;;1.70;0.20;;;1.80;99.90;;;;;;5068591;28;20278;-57
2021/01/13 09:02:05;;;;;;;1.80;0.55;;;1.90;99.90;;;;;;5070315;28;20224;-58
2021/01/13 09:04:56;;;;;;;2.72;0.90;;;1.90;99.90;;;;;;5072119;28;20664;-57
2021/01/13 09:07:26;;;;;;;1.80;0.32;;;1.90;99.90;;;;;;5075166;28;20203;-57
2021/01/13 09:09:51;;;;;;;1.70;0.20;;;1.90;99.90;;;;;;5068443;28;20213;-58
2021/01/13 09:12:36;;;;;;;1.70;0.20;;;1.90;99.90;;;;;;5075785;28;20263;-57
2021/01/13 09:15:16;;;;;;;1.70;0.20;;;1.90;99.90;;;;;;5075462;28;20192;-57
2021/01/13 09:17:48;;;;;;;1.73;0.20;;;1.80;99.90;;;;;;5064854;28;20208;-57
2021/01/13 09:20:13;;;;;;;1.70;0.20;;;1.80;99.90;;;;;;5071403;28;20177;-57
2021/01/13 09:22:58;;;;;;;12.73;1.90;;;1.80;99.90;;;;;;5067998;28;20187;-57
2021/01/13 09:25:25;;;;;;;2.22;0.75;;;1.80;99.90;;;;;;5065579;28;20200;-57
2021/01/13 09:28:03;;;;;;;2.00;0.43;;;1.80;99.90;;;;;;5059450;28;20249;-58
2021/01/13 09:30:38;;;;;;;1.90;0.30;;;1.80;99.90;;;;;;5057399;28;20683;-57
2021/01/13 09:33:07;;;;;;;1.70;0.20;;;1.80;99.90;;;;;;5070513;28;20180;-57
2021/01/13 09:35:38;;;;;;;2.10;0.57;;;1.80;99.90;;;;;;5065547;28;20180;-57
2021/01/13 09:38:08;;;;;;;1.70;0.20;;;1.80;99.90;;;;;;5071175;28;20200;-60
2021/01/13 09:40:48;;;;;;;1.70;0.20;;;1.90;99.90;;;;;;5073107;28;20236;-58
2021/01/13 09:43:44;;;;;;;1.80;0.30;;;2.00;99.90;;;;;;5066034;28;20200;-58
2021/01/13 09:46:21;;;;;;;2.70;0.85;;;1.90;99.90;;;;;;5068021;28;20667;-57
2021/01/13 09:49:16;;;;;;;1.80;0.40;;;1.80;99.90;;;;;;5070676;28;20196;-58
2021/01/13 09:51:41;;;;;;;1.80;0.40;;;1.80;99.90;;;;;;5052600;28;20256;-58
2021/01/13 09:54:08;;;;;;;3.30;2.13;;;1.80;99.90;;;;;;5074052;28;20184;-58
2021/01/13 09:56:36;;;;;;;6.72;3.00;;;1.80;99.90;;;;;;5069148;28;20208;-58
2021/01/13 09:59:04;;;;;;;2.10;0.65;;;1.80;99.90;;;;;;5061918;28;20189;-58
2021/01/13 10:01:32;;;;;;;2.20;0.73;;;1.90;99.90;;;;;;5069360;28;20208;-57
2021/01/13 10:04:02;;;;;;;1.90;0.40;;;1.90;99.90;;;;;;5069770;28;20216;-58
2021/01/13 10:06:32;;;;;;;5.50;2.33;;;1.80;99.90;;;;;;5064303;28;20193;-58
2021/01/13 10:09:00;;;;;;;13.48;1.65;;;1.80;99.90;;;;;;5071115;28;20686;-58
2021/01/13 10:11:27;;;;;;;8.30;1.95;;;1.90;99.90;;;;;;5067067;28;20291;-57
2021/01/13 10:14:01;;;;;;;2.03;0.52;;;1.90;99.90;;;;;;5064274;28;20193;-57
2021/01/13 10:16:28;;;;;;;4.70;2.80;;;2.00;99.90;;;;;;5072158;28;20204;-57
2021/01/13 10:18:58;;;;;;;1.77;0.30;;;2.00;99.90;;;;;;5068263;28;20701;-57
2021/01/13 10:21:33;;;;;;;3.40;1.40;;;2.00;99.90;;;;;;5066623;28;20713;-57
2021/01/13 10:24:09;;;;;;;1.77;0.20;;;2.00;99.90;;;;;;5064661;28;20641;-58
2021/01/13 10:26:40;;;;;;;9.70;4.00;;;2.00;99.90;;;;;;5069024;28;20235;-58
2021/01/13 10:29:07;;;;;;;1.70;0.20;;;2.10;99.90;;;;;;5065463;28;20192;-57
2021/01/13 10:31:33;;;;;;;1.70;0.20;;;2.30;99.90;;;;;;5070503;28;20208;-57
2021/01/13 10:33:59;;;;;;;1.75;0.20;;;2.30;99.90;;;;;;5068949;28;20184;-57
2021/01/13 10:36:31;;;;;;;1.70;0.20;;;2.40;99.90;;;;;;5069247;28;20303;-57
2021/01/13 10:39:01;;;;;;;2.72;1.13;;;2.50;99.90;;;;;;5074310;28;20484;-57
2021/01/13 10:41:32;;;;;;;2.05;0.70;;;2.50;99.90;;;;;;5071922;28;20199;-59
2021/01/13 10:44:01;;;;;;;1.70;0.20;;;2.50;99.90;;;;;;5069285;28;20191;-57
2021/01/13 10:46:30;;;;;;;8.60;3.47;;;2.50;99.90;;;;;;5072012;28;20217;-58
2021/01/13 10:49:02;;;;;;;1.70;0.22;;;2.60;99.90;;;;;;5072380;28;20192;-58
2021/01/13 10:51:36;;;;;;;1.80;0.50;;;2.70;99.90;;;;;;5068206;28;20353;-58
2021/01/13 10:54:05;;;;;;;4.97;1.02;;;2.70;99.90;;;;;;5073333;28;20188;-59
2021/01/13 10:56:33;;;;;;;1.80;0.50;;;2.80;99.90;;;;;;5072221;28;20216;-59
2021/01/13 10:59:03;;;;;;;2.10;0.65;;;2.70;99.90;;;;;;5066241;28;20640;-58
2021/01/13 11:01:30;;;;;;;6.43;3.28;;;2.80;99.90;;;;;;5072612;28;20180;-58
2021/01/13 11:03:56;;;;;;;1.70;0.20;;;2.80;99.90;;;;;;5072440;28;20216;-58
2021/01/13 11:06:26;;;;;;;1.70;0.20;;;2.80;99.90;;;;;;5068159;28;20275;-58
2021/01/13 11:08:53;;;;;;;1.70;0.20;;;2.90;99.90;;;;;;5080365;28;20536;-58
2021/01/13 11:11:20;;;;;;;1.90;0.50;;;2.80;99.90;;;;;;5071448;28;20223;-57
2021/01/13 11:13:45;;;;;;;1.70;0.20;;;2.90;99.90;;;;;;5065888;28;20197;-58
2021/01/13 11:19:05;;;;;;;1.70;0.20;;;2.90;99.90;;;;;;6034083;22;20916;-59
2021/01/13 11:21:39;;;;;;;10.85;2.30;;;2.90;99.90;;;;;;5013072;28;20209;-59
2021/01/13 11:24:05;;;;;;;6.15;3.50;;;2.90;99.90;;;;;;5016274;28;20220;-58
2021/01/13 11:26:39;;;;;;;7.17;2.10;;;2.90;99.90;;;;;;5023597;28;20568;-58
2021/01/13 11:29:05;;;;;;;1.70;0.20;;;3.00;99.90;;;;;;5018245;28;20514;-59
2021/01/13 11:31:34;;;;;;;2.65;0.68;;;3.10;99.90;;;;;;5023447;28;20207;-58
2021/01/13 11:34:01;;;;;;;6.68;3.42;;;3.10;99.90;;;;;;5023081;28;20178;-57
2021/01/13 11:36:30;;;;;;;6.75;2.58;;;3.20;99.90;;;;;;5017881;28;20262;-57
2021/01/13 11:39:03;;;;;;;3.15;1.67;;;3.20;99.90;;;;;;5023133;28;20202;-58
2021/01/13 11:41:50;;;;;;;3.67;1.40;;;3.30;99.90;;;;;;5022002;28;20182;-57
2021/01/13 11:44:53;;;;;;;3.53;1.10;;;3.40;99.90;;;;;;5018869;28;20193;-60
2021/01/13 11:47:21;;;;;;;11.18;5.32;;;3.50;99.90;;;;;;5009867;28;20183;-57
2021/01/13 11:49:48;;;;;;;2.28;0.60;;;3.70;99.90;;;;;;5023780;28;20210;-58
2021/01/13 11:52:16;;;;;;;3.00;0.88;;;3.70;99.90;;;;;;5015156;28;20187;-59
2021/01/13 11:54:50;;;;;;;5.18;2.53;;;3.80;99.90;;;;;;5019089;28;20195;-57
2021/01/13 11:57:26;;;;;;;2.67;0.77;;;3.80;99.90;;;;;;5020628;28;20190;-59
2021/01/13 11:59:56;;;;;;;13.95;3.58;;;3.90;99.90;;;;;;5014056;28;20217;-57
2021/01/13 12:02:30;;;;;;;3.30;1.70;;;3.90;99.90;;;;;;5016206;28;20171;-58
2021/01/13 12:04:56;;;;;;;4.82;2.17;;;3.90;99.90;;;;;;5009441;28;20186;-57
2021/01/13 12:07:22;;;;;;;2.23;0.83;;;3.90;99.90;;;;;;5020381;28;20304;-57
2021/01/13 12:10:11;;;;;;;2.20;0.67;;;3.90;99.90;;;;;;5015076;28;20240;-58
2021/01/13 12:12:37;;;;;;;1.73;0.20;;;4.10;99.90;;;;;;5016796;28;20195;-62
2021/01/13 12:15:11;;;;;;;2.43;1.00;;;4.20;99.90;;;;;;5020332;28;20182;-59
2021/01/13 12:17:52;;;;;;;1.70;0.20;;;4.20;99.90;;;;;;5022192;28;20192;-58
2021/01/13 12:20:48;;;;;;;4.75;2.90;;;4.30;99.90;;;;;;5018911;28;20815;-58
2021/01/13 12:23:31;;;;;;;3.83;1.27;;;4.40;99.90;;;;;;5002816;28;20685;-57
2021/01/13 12:26:19;;;;;;;5.25;2.30;;;4.40;99.90;;;;;;5015241;28;20186;-58
2021/01/13 12:28:50;;;;;;;1.70;0.20;;;4.40;99.90;;;;;;5011858;28;20174;-57
2021/01/13 12:31:18;;;;;;;3.20;1.33;;;4.50;99.90;;;;;;5018323;28;20648;-57
2021/01/13 12:33:57;;;;;;;1.70;0.20;;;4.50;99.90;;;;;;5021560;28;20189;-58
2021/01/13 12:36:37;;;;;;;2.30;0.77;;;4.50;99.90;;;;;;5024007;28;20229;-57
2021/01/13 12:39:03;;;;;;;1.80;0.30;;;4.50;99.90;;;;;;5023017;28;20201;-57
2021/01/13 12:41:34;;;;;;;2.53;0.98;;;4.50;99.90;;;;;;5020046;28;20190;-59
2021/01/13 12:44:10;;;;;;;3.90;2.10;;;4.50;99.90;;;;;;5015703;28;20205;-61
2021/01/13 12:46:37;;;;;;;5.00;0.45;;;4.50;99.90;;;;;;5026706;28;20903;-58
2021/01/13 12:49:04;;;;;;;8.50;1.35;;;4.40;99.90;;;;;;5014733;28;20248;-57
2021/01/13 12:51:30;;;;;;;4.22;1.83;;;4.40;99.90;;;;;;5015830;28;20206;-59
2021/01/13 12:53:57;;;;;;;2.45;0.70;;;4.40;99.90;;;;;;5017892;28;20230;-59
2021/01/13 12:56:31;;;;;;;2.53;0.40;;;4.30;99.90;;;;;;5021520;28;20186;-58
2021/01/13 12:58:58;;;;;;;1.70;0.30;;;4.30;99.90;;;;;;5018678;28;20202;-57
2021/01/13 13:01:24;;;;;;;5.93;1.50;;;4.30;99.90;;;;;;5027411;28;20209;-57
2021/01/13 13:03:50;;;;;;;2.10;0.52;;;4.30;99.90;;;;;;5014936;28;20811;-57
2021/01/13 13:06:26;;;;;;;2.70;1.70;;;4.30;99.90;;;;;;5014112;28;20198;-57
2021/01/13 13:08:53;;;;;;;6.47;2.25;;;4.30;99.90;;;;;;5023785;28;20213;-57
2021/01/13 13:11:19;;;;;;;2.05;0.73;;;4.30;99.90;;;;;;5018336;28;20285;-57
2021/01/13 13:13:45;;;;;;;2.93;0.83;;;4.30;99.90;;;;;;5014765;28;20242;-57
2021/01/13 13:16:11;;;;;;;5.60;1.43;;;4.30;99.90;;;;;;5018121;28;20190;-57
2021/01/13 13:18:38;;;;;;;2.42;0.95;;;4.30;99.90;;;;;;5016735;28;20186;-57
2021/01/13 13:21:14;;;;;;;1.70;0.20;;;4.30;99.90;;;;;;5014275;28;20239;-58
2021/01/13 13:23:41;;;;;;;1.75;0.20;;;4.30;99.90;;;;;;5026775;28;20548;-57
2021/01/13 13:26:07;;;;;;;1.70;0.20;;;4.30;99.90;;;;;;5015762;28;20266;-57